Time;durP1;ratioP1;P1;durP2;ratioP2;P2;SDS_P1;SDS_P2;PMS_P1;PMS_P2;Temp;Humidity;BMP_temperature;BMP_pressure;BME280_temperature;BME280_humidity;BME280_pressure;Samples;Min_cycle;Max_cycle;Signal;HPM_P1;HPM_P2
2021/12/30 00:01:28;;;;;;;7.15;3.83;;;;;;;;;;6285111;22;20110;-64
2021/12/30 00:03:55;;;;;;;5.40;3.92;;;;;;;;;;6286247;22;20056;-67
2021/12/30 00:06:23;;;;;;;9.80;3.45;;;;;;;;;;6284702;22;20068;-65
2021/12/30 00:08:50;;;;;;;7.22;3.38;;;;;;;;;;6285080;22;20004;-66
2021/12/30 00:11:16;;;;;;;11.50;5.13;;;;;;;;;;6284303;22;20051;-67
2021/12/30 00:13:46;;;;;;;4.70;3.50;;;;;;;;;;6284958;22;20064;-65
2021/12/30 00:16:16;;;;;;;7.88;3.78;;;;;;;;;;6280622;22;20018;-68
2021/12/30 00:18:42;;;;;;;5.35;3.80;;;;;;;;;;6283596;22;20007;-70
2021/12/30 00:21:09;;;;;;;6.88;3.20;;;;;;;;;;6282325;22;20335;-69
2021/12/30 00:23:36;;;;;;;7.38;3.05;;;;;;;;;;6280258;22;20061;-69
2021/12/30 00:26:02;;;;;;;13.05;4.32;;;;;;;;;;6284617;22;20534;-68
2021/12/30 00:28:28;;;;;;;5.53;3.60;;;;;;;;;;6281636;22;20023;-69
2021/12/30 00:30:55;;;;;;;7.53;3.13;;;;;;;;;;6282510;22;20485;-64
2021/12/30 00:33:21;;;;;;;6.13;3.40;;;;;;;;;;6280325;22;20008;-68
2021/12/30 00:35:47;;;;;;;5.93;2.75;;;;;;;;;;6283443;22;20026;-67
2021/12/30 00:38:13;;;;;;;4.97;2.40;;;;;;;;;;6280059;22;20018;-72
2021/12/30 00:40:40;;;;;;;7.45;3.10;;;;;;;;;;6282227;22;20004;-69
2021/12/30 00:43:06;;;;;;;5.68;2.88;;;;;;;;;;6282069;22;20000;-70
2021/12/30 00:45:33;;;;;;;11.65;4.00;;;;;;;;;;6281170;22;20477;-68
2021/12/30 00:48:00;;;;;;;4.50;3.03;;;;;;;;;;6286384;22;20063;-69
2021/12/30 00:50:26;;;;;;;6.40;2.65;;;;;;;;;;6281819;22;20004;-69
2021/12/30 00:52:53;;;;;;;4.72;2.63;;;;;;;;;;6278505;22;20031;-70
2021/12/30 00:55:19;;;;;;;5.93;2.65;;;;;;;;;;6279764;22;20008;-71
2021/12/30 00:57:45;;;;;;;5.53;2.80;;;;;;;;;;6278265;22;20084;-68
2021/12/30 01:00:13;;;;;;;4.43;2.30;;;;;;;;;;6280553;22;20022;-70
2021/12/30 01:02:39;;;;;;;4.20;2.58;;;;;;;;;;6277921;22;20426;-67
2021/12/30 01:05:06;;;;;;;4.65;2.20;;;;;;;;;;6279861;22;20007;-66
2021/12/30 01:07:32;;;;;;;5.38;3.15;;;;;;;;;;6277322;22;20549;-68
2021/12/30 01:09:59;;;;;;;5.20;2.75;;;;;;;;;;6281413;22;20011;-68
2021/12/30 01:12:26;;;;;;;3.67;2.40;;;;;;;;;;6278604;22;20063;-67
2021/12/30 01:14:52;;;;;;;4.32;2.15;;;;;;;;;;6279394;22;20026;-70
2021/12/30 01:17:42;;;;;;;5.72;2.30;;;;;;;;;;6276885;22;20054;-70
2021/12/30 01:20:09;;;;;;;3.75;2.50;;;;;;;;;;6279262;22;19999;-66
2021/12/30 01:22:36;;;;;;;6.07;2.50;;;;;;;;;;6277328;22;20015;-64
2021/12/30 01:25:03;;;;;;;3.80;2.75;;;;;;;;;;6278455;22;20007;-66
2021/12/30 01:27:29;;;;;;;2.80;2.10;;;;;;;;;;6277240;22;20004;-70
2021/12/30 01:29:55;;;;;;;4.53;2.70;;;;;;;;;;6277814;22;19999;-67
2021/12/30 01:32:21;;;;;;;3.30;2.65;;;;;;;;;;6276039;22;20007;-68
2021/12/30 01:34:48;;;;;;;3.20;2.10;;;;;;;;;;6278479;22;20003;-69
2021/12/30 01:37:19;;;;;;;5.03;2.30;;;;;;;;;;6278150;22;20012;-70
2021/12/30 01:39:45;;;;;;;2.90;2.00;;;;;;;;;;6277682;22;20068;-71
2021/12/30 01:42:11;;;;;;;4.53;2.08;;;;;;;;;;6277236;22;20395;-66
2021/12/30 01:44:37;;;;;;;2.88;1.98;;;;;;;;;;6280338;22;20020;-65
2021/12/30 01:47:04;;;;;;;2.47;1.98;;;;;;;;;;6280131;22;20387;-73
2021/12/30 01:49:30;;;;;;;3.72;2.15;;;;;;;;;;6275029;22;20008;-69
2021/12/30 01:51:57;;;;;;;2.20;2.00;;;;;;;;;;6277978;22;20062;-68
2021/12/30 01:54:24;;;;;;;2.40;1.90;;;;;;;;;;6276241;22;20007;-66
2021/12/30 01:56:51;;;;;;;5.97;2.55;;;;;;;;;;6278398;22;20070;-67
2021/12/30 01:59:21;;;;;;;3.17;1.90;;;;;;;;;;6278751;22;20053;-69
2021/12/30 02:01:53;;;;;;;2.25;2.05;;;;;;;;;;6278371;22;20007;-69
2021/12/30 02:04:19;;;;;;;3.28;2.38;;;;;;;;;;6277349;22;20003;-69
2021/12/30 02:06:45;;;;;;;2.72;2.30;;;;;;;;;;6278879;22;20000;-66
2021/12/30 02:09:12;;;;;;;3.95;2.63;;;;;;;;;;6281363;22;20002;-71
2021/12/30 02:11:38;;;;;;;3.20;2.72;;;;;;;;;;6280659;22;20004;-67
2021/12/30 02:14:04;;;;;;;4.38;2.75;;;;;;;;;;6280289;22;20052;-68
2021/12/30 02:16:30;;;;;;;2.58;2.38;;;;;;;;;;6281628;22;20007;-68
2021/12/30 02:18:56;;;;;;;2.60;2.40;;;;;;;;;;6283486;22;20010;-68
2021/12/30 02:21:22;;;;;;;2.72;2.38;;;;;;;;;;6282249;22;20004;-70
2021/12/30 02:23:48;;;;;;;2.90;2.60;;;;;;;;;;6283794;22;20011;-66
2021/12/30 02:26:16;;;;;;;2.63;2.42;;;;;;;;;;6280808;22;19996;-72
2021/12/30 02:28:42;;;;;;;2.88;2.17;;;;;;;;;;6282010;22;20425;-71
2021/12/30 02:31:19;;;;;;;2.30;2.10;;;;;;;;;;6280373;22;20010;-68
2021/12/30 02:33:46;;;;;;;2.65;2.25;;;;;;;;;;6278919;22;20000;-67
2021/12/30 02:36:13;;;;;;;2.85;2.03;;;;;;;;;;6278573;22;20014;-67
2021/12/30 02:38:45;;;;;;;2.08;1.88;;;;;;;;;;6281131;22;20022;-66
2021/12/30 02:41:15;;;;;;;1.90;1.70;;;;;;;;;;6285101;22;20003;-69
2021/12/30 02:43:42;;;;;;;2.20;1.73;;;;;;;;;;6282164;22;20515;-66
2021/12/30 02:46:08;;;;;;;2.47;2.28;;;;;;;;;;6279837;22;19999;-71
2021/12/30 02:48:36;;;;;;;1.70;1.60;;;;;;;;;;6281889;22;20326;-70
2021/12/30 02:51:04;;;;;;;1.80;1.70;;;;;;;;;;6283772;22;20011;-66
2021/12/30 02:53:30;;;;;;;1.40;1.30;;;;;;;;;;6282097;22;20004;-68
2021/12/30 02:55:57;;;;;;;2.97;1.70;;;;;;;;;;6281959;22;20456;-68
2021/12/30 02:58:24;;;;;;;1.58;1.48;;;;;;;;;;6280741;22;20003;-68
2021/12/30 03:00:51;;;;;;;1.60;1.50;;;;;;;;;;6284274;22;20462;-63
2021/12/30 03:03:21;;;;;;;1.17;1.17;;;;;;;;;;6285065;22;19996;-65
2021/12/30 03:05:49;;;;;;;1.52;1.42;;;;;;;;;;6278611;22;20192;-67
2021/12/30 03:08:15;;;;;;;1.50;1.40;;;;;;;;;;6280107;22;20065;-69
2021/12/30 03:10:41;;;;;;;2.42;1.70;;;;;;;;;;6281585;22;20010;-68
2021/12/30 03:13:09;;;;;;;1.40;1.30;;;;;;;;;;6279310;22;20547;-65
2021/12/30 03:15:35;;;;;;;1.58;1.48;;;;;;;;;;6281983;22;20007;-67
2021/12/30 03:18:01;;;;;;;1.63;1.52;;;;;;;;;;6279973;22;20465;-67
2021/12/30 03:20:28;;;;;;;1.50;1.40;;;;;;;;;;6282494;22;20008;-65
2021/12/30 03:22:54;;;;;;;1.45;1.35;;;;;;;;;;6280094;22;20081;-69
2021/12/30 03:25:20;;;;;;;1.70;1.60;;;;;;;;;;6282495;22;20006;-66
2021/12/30 03:27:46;;;;;;;1.73;1.63;;;;;;;;;;6281637;22;20484;-66
2021/12/30 03:30:14;;;;;;;1.58;1.48;;;;;;;;;;6281064;22;20426;-71
2021/12/30 03:32:40;;;;;;;1.48;1.38;;;;;;;;;;6281470;22;20010;-67
2021/12/30 03:35:07;;;;;;;1.35;1.25;;;;;;;;;;6278467;22;20027;-64
2021/12/30 03:37:33;;;;;;;1.70;1.60;;;;;;;;;;6282012;22;20011;-65
2021/12/30 03:39:59;;;;;;;1.70;1.60;;;;;;;;;;6279226;22;20004;-68
2021/12/30 03:42:25;;;;;;;1.92;1.75;;;;;;;;;;6283085;22;20007;-69
2021/12/30 03:44:56;;;;;;;1.60;1.50;;;;;;;;;;6283125;22;19996;-66
2021/12/30 03:47:22;;;;;;;1.60;1.50;;;;;;;;;;6281843;22;20114;-65
2021/12/30 03:49:48;;;;;;;1.50;1.40;;;;;;;;;;6282911;22;20011;-67
2021/12/30 03:52:20;;;;;;;1.63;1.52;;;;;;;;;;6283314;22;20004;-65
2021/12/30 03:54:47;;;;;;;1.70;1.60;;;;;;;;;;6282953;22;19996;-67
2021/12/30 03:57:13;;;;;;;1.58;1.48;;;;;;;;;;6286345;22;20053;-66
2021/12/30 03:59:39;;;;;;;1.65;1.55;;;;;;;;;;6280467;22;19999;-67
2021/12/30 04:02:05;;;;;;;1.73;1.63;;;;;;;;;;6283123;22;20536;-69
2021/12/30 04:04:32;;;;;;;1.55;1.45;;;;;;;;;;6282729;22;20078;-65
2021/12/30 04:07:01;;;;;;;1.63;1.52;;;;;;;;;;6282404;22;20003;-64
2021/12/30 04:09:28;;;;;;;1.55;1.45;;;;;;;;;;6281762;22;20019;-70
2021/12/30 04:11:54;;;;;;;1.60;1.50;;;;;;;;;;6280686;22;20467;-67
2021/12/30 04:14:20;;;;;;;1.60;1.50;;;;;;;;;;6281162;22;20000;-68
2021/12/30 04:16:47;;;;;;;1.60;1.50;;;;;;;;;;6281537;22;19999;-65
2021/12/30 04:19:13;;;;;;;1.63;1.52;;;;;;;;;;6284102;22;19995;-65
2021/12/30 04:21:39;;;;;;;1.50;1.40;;;;;;;;;;6282921;22;20016;-67
2021/12/30 04:24:05;;;;;;;1.60;1.50;;;;;;;;;;6282991;22;20007;-69
2021/12/30 04:26:31;;;;;;;1.60;1.50;;;;;;;;;;6284502;22;19996;-65
2021/12/30 04:28:58;;;;;;;1.50;1.40;;;;;;;;;;6285648;22;20337;-65
2021/12/30 04:31:24;;;;;;;1.60;1.50;;;;;;;;;;6285621;22;20060;-65
2021/12/30 04:33:50;;;;;;;2.13;1.70;;;;;;;;;;6285126;22;20011;-68
2021/12/30 04:36:16;;;;;;;1.80;1.70;;;;;;;;;;6286083;22;20079;-67
2021/12/30 04:38:42;;;;;;;1.50;1.40;;;;;;;;;;6284607;22;20008;-66
2021/12/30 04:41:09;;;;;;;1.42;1.33;;;;;;;;;;6284839;22;19995;-66
2021/12/30 04:43:35;;;;;;;1.27;1.23;;;;;;;;;;6283496;22;19999;-65
2021/12/30 04:46:02;;;;;;;1.40;1.30;;;;;;;;;;6285100;22;20543;-64
2021/12/30 04:48:28;;;;;;;1.38;1.30;;;;;;;;;;6283568;22;20000;-69
2021/12/30 04:50:55;;;;;;;1.50;1.40;;;;;;;;;;6286191;22;20031;-63
2021/12/30 04:53:21;;;;;;;1.60;1.50;;;;;;;;;;6282427;22;20030;-67
2021/12/30 04:55:48;;;;;;;1.40;1.30;;;;;;;;;;6281175;22;20012;-68
2021/12/30 04:58:14;;;;;;;1.30;1.25;;;;;;;;;;6282244;22;19996;-65
2021/12/30 05:00:40;;;;;;;1.48;1.38;;;;;;;;;;6282923;22;20418;-66
2021/12/30 05:03:14;;;;;;;1.50;1.40;;;;;;;;;;6283004;22;20059;-65
2021/12/30 05:05:45;;;;;;;3.17;1.40;;;;;;;;;;6283017;22;19996;-68
2021/12/30 05:08:11;;;;;;;1.23;1.23;;;;;;;;;;6282633;22;20000;-72
2021/12/30 05:10:38;;;;;;;1.42;1.33;;;;;;;;;;6282102;22;20004;-64
2021/12/30 05:13:05;;;;;;;1.60;1.50;;;;;;;;;;6283116;22;20069;-68
2021/12/30 05:15:31;;;;;;;2.22;1.30;;;;;;;;;;6282007;22;20000;-67
2021/12/30 05:17:57;;;;;;;1.60;1.50;;;;;;;;;;6283563;22;20007;-69
2021/12/30 05:20:23;;;;;;;1.50;1.40;;;;;;;;;;6282192;22;20007;-65
2021/12/30 05:22:50;;;;;;;1.48;1.25;;;;;;;;;;6282921;22;20027;-64
2021/12/30 05:25:18;;;;;;;1.60;1.50;;;;;;;;;;6282351;22;19995;-68
2021/12/30 05:27:44;;;;;;;1.13;1.10;;;;;;;;;;6282139;22;20491;-66
2021/12/30 05:30:11;;;;;;;3.05;1.63;;;;;;;;;;6281792;22;20083;-65
2021/12/30 05:32:37;;;;;;;1.33;1.23;;;;;;;;;;6282242;22;20015;-67
2021/12/30 05:35:04;;;;;;;2.13;1.42;;;;;;;;;;6279969;22;20061;-70
2021/12/30 05:37:30;;;;;;;1.83;1.40;;;;;;;;;;6280316;22;20019;-68
2021/12/30 05:39:56;;;;;;;1.25;1.20;;;;;;;;;;6281493;22;20004;-68
2021/12/30 05:42:23;;;;;;;1.27;1.23;;;;;;;;;;6283138;22;20008;-65
2021/12/30 05:44:53;;;;;;;1.50;1.40;;;;;;;;;;6284165;22;20006;-69
2021/12/30 05:47:20;;;;;;;1.35;1.25;;;;;;;;;;6283602;22;20008;-70
2021/12/30 05:49:46;;;;;;;2.53;1.40;;;;;;;;;;6282021;22;20605;-70
2021/12/30 05:52:12;;;;;;;1.55;1.40;;;;;;;;;;6280759;22;19995;-70
2021/12/30 05:54:39;;;;;;;1.98;1.50;;;;;;;;;;6281417;22;20004;-69
2021/12/30 05:57:05;;;;;;;1.75;1.60;;;;;;;;;;6283284;22;20027;-71
2021/12/30 05:59:31;;;;;;;2.25;1.30;;;;;;;;;;6279987;22;20061;-70
2021/12/30 06:01:57;;;;;;;1.55;1.45;;;;;;;;;;6278804;22;20031;-67
2021/12/30 06:04:24;;;;;;;1.45;1.33;;;;;;;;;;6279693;22;20026;-70
2021/12/30 06:06:50;;;;;;;1.50;1.40;;;;;;;;;;6278818;22;20079;-69
2021/12/30 06:09:16;;;;;;;1.33;1.20;;;;;;;;;;6280834;22;20223;-71
2021/12/30 06:11:43;;;;;;;1.52;1.40;;;;;;;;;;6279474;22;19999;-73
2021/12/30 06:14:09;;;;;;;1.05;1.05;;;;;;;;;;6281358;22;20078;-70
2021/12/30 06:16:35;;;;;;;1.33;1.23;;;;;;;;;;6279903;22;19999;-71
2021/12/30 06:19:13;;;;;;;1.33;1.25;;;;;;;;;;6288845;22;20006;-67
2021/12/30 06:21:39;;;;;;;1.20;1.10;;;;;;;;;;6280500;22;20008;-70
2021/12/30 06:24:06;;;;;;;2.72;1.27;;;;;;;;;;6276962;22;20004;-73
2021/12/30 06:26:32;;;;;;;1.27;1.17;;;;;;;;;;6279641;22;20000;-67
2021/12/30 06:28:58;;;;;;;1.02;1.02;;;;;;;;;;6279923;22;20007;-70
2021/12/30 06:31:24;;;;;;;1.85;1.70;;;;;;;;;;6279524;22;20031;-64
2021/12/30 06:33:50;;;;;;;1.25;1.15;;;;;;;;;;6281233;22;20043;-70
2021/12/30 06:36:17;;;;;;;2.15;1.40;;;;;;;;;;6275254;22;20011;-69
2021/12/30 06:38:43;;;;;;;2.78;1.38;;;;;;;;;;6276965;22;20011;-71
2021/12/30 06:41:09;;;;;;;1.40;1.30;;;;;;;;;;6277030;22;20003;-68
2021/12/30 06:43:36;;;;;;;1.38;1.33;;;;;;;;;;6276878;22;20000;-68
2021/12/30 06:46:05;;;;;;;1.80;1.30;;;;;;;;;;6277965;22;20458;-70
2021/12/30 06:48:31;;;;;;;2.47;1.38;;;;;;;;;;6274747;22;20430;-67
2021/12/30 06:50:59;;;;;;;3.40;1.30;;;;;;;;;;6275869;22;20010;-69
2021/12/30 06:53:25;;;;;;;2.47;1.52;;;;;;;;;;6276683;22;20004;-69
2021/12/30 06:55:52;;;;;;;2.00;1.20;;;;;;;;;;6278442;22;20003;-70
2021/12/30 06:58:19;;;;;;;3.70;1.40;;;;;;;;;;6278793;22;20057;-69
2021/12/30 07:00:46;;;;;;;2.58;1.25;;;;;;;;;;6277797;22;20007;-69
2021/12/30 07:03:13;;;;;;;3.13;1.60;;;;;;;;;;6275279;22;20330;-71
2021/12/30 07:05:39;;;;;;;3.42;1.70;;;;;;;;;;6277205;22;19996;-70
2021/12/30 07:08:05;;;;;;;3.67;1.52;;;;;;;;;;6279112;22;20045;-70
2021/12/30 07:10:31;;;;;;;2.10;1.40;;;;;;;;;;6278232;22;19999;-69
2021/12/30 07:12:57;;;;;;;1.83;1.23;;;;;;;;;;6279296;22;20000;-69
2021/12/30 07:15:23;;;;;;;2.40;1.20;;;;;;;;;;6276989;22;20008;-71
2021/12/30 07:17:49;;;;;;;3.47;1.50;;;;;;;;;;6278430;22;20030;-68
2021/12/30 07:20:16;;;;;;;1.45;1.35;;;;;;;;;;6284342;22;20460;-67
2021/12/30 07:22:42;;;;;;;1.25;1.20;;;;;;;;;;6278284;22;20008;-70
2021/12/30 07:25:09;;;;;;;1.40;1.30;;;;;;;;;;6279314;22;20070;-68
2021/12/30 07:27:35;;;;;;;1.90;1.40;;;;;;;;;;6277846;22;20115;-70
2021/12/30 07:30:02;;;;;;;1.38;1.27;;;;;;;;;;6280047;22;20228;-70
2021/12/30 07:32:28;;;;;;;1.27;1.17;;;;;;;;;;6280732;22;20010;-71
2021/12/30 07:34:54;;;;;;;1.40;1.30;;;;;;;;;;6279406;22;20007;-69
2021/12/30 07:37:21;;;;;;;5.32;3.15;;;;;;;;;;6277205;22;20438;-71
2021/12/30 07:39:49;;;;;;;1.42;1.33;;;;;;;;;;6280062;22;19999;-71
2021/12/30 07:42:15;;;;;;;1.80;1.42;;;;;;;;;;6278882;22;20002;-68
2021/12/30 07:44:41;;;;;;;1.00;1.00;;;;;;;;;;6279149;22;20303;-67
2021/12/30 07:47:07;;;;;;;1.73;1.02;;;;;;;;;;6278041;22;20067;-69
2021/12/30 07:49:36;;;;;;;1.30;1.20;;;;;;;;;;6278359;22;20083;-67
2021/12/30 07:52:03;;;;;;;1.10;1.02;;;;;;;;;;6278348;22;20006;-70
2021/12/30 07:54:29;;;;;;;1.40;1.30;;;;;;;;;;6279210;22;19995;-71
2021/12/30 07:56:55;;;;;;;1.45;1.35;;;;;;;;;;6275949;22;20049;-69
2021/12/30 07:59:21;;;;;;;4.82;1.63;;;;;;;;;;6278907;22;19999;-70
2021/12/30 08:01:47;;;;;;;2.30;1.30;;;;;;;;;;6278268;22;20000;-69
2021/12/30 08:04:13;;;;;;;1.00;1.00;;;;;;;;;;6278966;22;20022;-71
2021/12/30 08:06:39;;;;;;;1.50;1.40;;;;;;;;;;6279051;22;20003;-66
2021/12/30 08:09:06;;;;;;;2.38;1.30;;;;;;;;;;6278322;22;20000;-71
2021/12/30 08:11:32;;;;;;;1.40;1.20;;;;;;;;;;6277162;22;20007;-70
2021/12/30 08:13:59;;;;;;;3.38;1.42;;;;;;;;;;6282450;22;19999;-65
2021/12/30 08:16:26;;;;;;;1.50;1.10;;;;;;;;;;6279890;22;20011;-68
2021/12/30 08:18:52;;;;;;;1.55;1.40;;;;;;;;;;6281082;22;20006;-70
2021/12/30 08:21:22;;;;;;;1.27;1.13;;;;;;;;;;6280750;22;20000;-70
2021/12/30 08:23:48;;;;;;;1.65;1.50;;;;;;;;;;6278475;22;20003;-70
2021/12/30 08:26:14;;;;;;;2.75;1.45;;;;;;;;;;6279077;22;20003;-69
2021/12/30 08:28:40;;;;;;;1.88;1.35;;;;;;;;;;6278865;22;20000;-73
2021/12/30 08:31:08;;;;;;;3.42;1.40;;;;;;;;;;6279511;22;20335;-70
2021/12/30 08:33:34;;;;;;;1.60;1.33;;;;;;;;;;6280220;22;20307;-67
2021/12/30 08:36:00;;;;;;;1.38;1.27;;;;;;;;;;6280969;22;20027;-68
2021/12/30 08:38:26;;;;;;;1.50;1.40;;;;;;;;;;6279193;22;20038;-68
2021/12/30 08:40:52;;;;;;;1.33;1.23;;;;;;;;;;6280194;22;20434;-70
2021/12/30 08:43:18;;;;;;;4.10;1.60;;;;;;;;;;6279751;22;20004;-67
2021/12/30 08:45:45;;;;;;;1.30;1.20;;;;;;;;;;6280464;22;20011;-70
2021/12/30 08:48:12;;;;;;;1.33;1.23;;;;;;;;;;6283029;22;20003;-68
2021/12/30 08:50:39;;;;;;;5.53;1.52;;;;;;;;;;6278110;22;20000;-70
2021/12/30 08:53:05;;;;;;;4.85;1.60;;;;;;;;;;6279067;22;20004;-67
2021/12/30 08:55:32;;;;;;;2.42;1.60;;;;;;;;;;6277257;22;20007;-72
2021/12/30 08:57:58;;;;;;;2.65;1.80;;;;;;;;;;6285591;22;20008;-64
2021/12/30 09:00:31;;;;;;;2.15;1.40;;;;;;;;;;6280180;22;20342;-70
2021/12/30 09:03:00;;;;;;;1.52;1.30;;;;;;;;;;6279273;22;20000;-70
2021/12/30 09:05:26;;;;;;;1.80;1.40;;;;;;;;;;6277704;22;20053;-69
2021/12/30 09:07:52;;;;;;;1.70;1.38;;;;;;;;;;6277553;22;20014;-69
2021/12/30 09:10:19;;;;;;;1.80;1.55;;;;;;;;;;6279113;22;20008;-70
2021/12/30 09:12:46;;;;;;;2.72;2.00;;;;;;;;;;6278593;22;20456;-70
2021/12/30 09:15:12;;;;;;;3.10;1.70;;;;;;;;;;6278464;22;20418;-71
2021/12/30 09:17:40;;;;;;;3.05;2.03;;;;;;;;;;6279614;22;19999;-70
2021/12/30 09:20:07;;;;;;;3.10;2.80;;;;;;;;;;6283213;22;19996;-65
2021/12/30 09:22:33;;;;;;;3.42;2.10;;;;;;;;;;6281402;22;20019;-70
2021/12/30 09:24:59;;;;;;;3.25;1.90;;;;;;;;;;6281599;22;20367;-71
2021/12/30 09:27:25;;;;;;;4.22;2.05;;;;;;;;;;6278697;22;20011;-72
2021/12/30 09:29:52;;;;;;;3.60;1.80;;;;;;;;;;6282038;22;20117;-69
2021/12/30 09:32:18;;;;;;;3.75;2.05;;;;;;;;;;6281704;22;20007;-68
2021/12/30 09:34:44;;;;;;;3.42;1.95;;;;;;;;;;6281517;22;20007;-71
2021/12/30 09:37:11;;;;;;;3.15;1.80;;;;;;;;;;6280514;22;20011;-69
2021/12/30 09:39:38;;;;;;;4.75;2.00;;;;;;;;;;6282143;22;20051;-69
2021/12/30 09:42:04;;;;;;;5.25;2.08;;;;;;;;;;6281538;22;20074;-64
2021/12/30 09:44:31;;;;;;;5.30;2.10;;;;;;;;;;6283365;22;20093;-70
2021/12/30 09:46:57;;;;;;;2.90;1.92;;;;;;;;;;6278432;22;20022;-69
2021/12/30 09:49:24;;;;;;;3.25;2.05;;;;;;;;;;6278953;22;19999;-69
2021/12/30 09:51:50;;;;;;;4.32;2.15;;;;;;;;;;6281194;22;19996;-65
2021/12/30 09:54:17;;;;;;;3.92;1.70;;;;;;;;;;6285706;22;20072;-69
2021/12/30 09:56:44;;;;;;;6.43;2.00;;;;;;;;;;6278997;22;20003;-69
2021/12/30 09:59:11;;;;;;;3.22;1.80;;;;;;;;;;6277658;22;20010;-67
2021/12/30 10:01:38;;;;;;;3.45;1.73;;;;;;;;;;6281312;22;20006;-69
2021/12/30 10:04:05;;;;;;;3.13;1.83;;;;;;;;;;6281026;22;20027;-70
2021/12/30 10:06:32;;;;;;;3.47;2.30;;;;;;;;;;6286290;22;20014;-70
2021/12/30 10:09:01;;;;;;;3.20;1.83;;;;;;;;;;6285241;22;20033;-66
2021/12/30 10:11:28;;;;;;;2.25;1.75;;;;;;;;;;6282183;22;20010;-68
2021/12/30 10:13:56;;;;;;;5.38;2.38;;;;;;;;;;6281894;22;20003;-68
2021/12/30 10:16:25;;;;;;;6.10;2.30;;;;;;;;;;6280340;22;20673;-66
2021/12/30 10:18:53;;;;;;;4.53;2.40;;;;;;;;;;6280297;22;20364;-71
2021/12/30 10:21:24;;;;;;;5.30;2.40;;;;;;;;;;6278817;22;20008;-66
2021/12/30 10:23:54;;;;;;;2.53;2.00;;;;;;;;;;6281084;22;20414;-68
2021/12/30 10:26:20;;;;;;;4.60;2.00;;;;;;;;;;6279562;22;20450;-65
2021/12/30 10:28:49;;;;;;;5.32;2.35;;;;;;;;;;6288016;22;20011;-68
2021/12/30 10:31:17;;;;;;;3.10;1.90;;;;;;;;;;6285634;22;20006;-69
2021/12/30 10:33:48;;;;;;;5.05;2.60;;;;;;;;;;6281183;22;20397;-69
2021/12/30 10:36:16;;;;;;;3.80;2.15;;;;;;;;;;6278792;22;20015;-66
2021/12/30 10:38:42;;;;;;;4.60;2.20;;;;;;;;;;6280547;22;20007;-69
2021/12/30 10:41:08;;;;;;;3.33;2.22;;;;;;;;;;6282639;22;20000;-67
2021/12/30 10:43:53;;;;;;;3.83;2.20;;;;;;;;;;6279560;22;20003;-68
2021/12/30 10:46:23;;;;;;;5.25;3.63;;;;;;;;;;6279252;22;20373;-68
2021/12/30 10:48:58;;;;;;;5.05;2.28;;;;;;;;;;6278961;22;20023;-71
2021/12/30 10:51:32;;;;;;;4.07;2.10;;;;;;;;;;6279862;22;20007;-69
2021/12/30 10:53:58;;;;;;;5.93;2.28;;;;;;;;;;6284883;22;20014;-70
2021/12/30 10:56:35;;;;;;;3.15;2.13;;;;;;;;;;6277730;22;20094;-70
2021/12/30 10:59:09;;;;;;;5.97;2.20;;;;;;;;;;6280380;22;20354;-72
2021/12/30 11:01:42;;;;;;;3.80;1.83;;;;;;;;;;6278642;22;19999;-69
2021/12/30 11:04:08;;;;;;;3.53;2.30;;;;;;;;;;6281608;22;20023;-70
2021/12/30 11:06:34;;;;;;;5.22;2.00;;;;;;;;;;6278222;22;19995;-70
2021/12/30 11:09:08;;;;;;;4.03;2.20;;;;;;;;;;6280890;22;20014;-69
2021/12/30 11:11:34;;;;;;;3.38;2.45;;;;;;;;;;6277900;22;20006;-68
2021/12/30 11:14:05;;;;;;;5.38;2.03;;;;;;;;;;6279254;22;20017;-68
2021/12/30 11:16:31;;;;;;;3.90;1.88;;;;;;;;;;6280824;22;20023;-68
2021/12/30 11:18:57;;;;;;;3.08;1.73;;;;;;;;;;6280193;22;20014;-71
2021/12/30 11:21:40;;;;;;;4.53;2.65;;;;;;;;;;6281163;22;19999;-71
2021/12/30 11:24:07;;;;;;;4.30;2.00;;;;;;;;;;6280001;22;20338;-69
2021/12/30 11:26:33;;;;;;;2.17;1.77;;;;;;;;;;6282063;22;20424;-69
2021/12/30 11:29:01;;;;;;;2.80;1.70;;;;;;;;;;6276288;22;20362;-68
2021/12/30 11:31:28;;;;;;;2.85;1.80;;;;;;;;;;6279431;22;20007;-70
2021/12/30 11:33:54;;;;;;;4.72;2.00;;;;;;;;;;6278412;22;20011;-69
2021/12/30 11:36:20;;;;;;;3.85;2.53;;;;;;;;;;6281440;22;20041;-65
2021/12/30 11:38:46;;;;;;;1.65;1.55;;;;;;;;;;6280694;22;20018;-67
2021/12/30 11:41:19;;;;;;;1.98;1.58;;;;;;;;;;6281350;22;20000;-71
2021/12/30 11:43:47;;;;;;;3.30;1.70;;;;;;;;;;6278785;22;20028;-70
2021/12/30 11:46:36;;;;;;;2.50;1.48;;;;;;;;;;6279114;22;20091;-71
2021/12/30 11:49:04;;;;;;;2.25;1.55;;;;;;;;;;6267786;22;20016;-71
2021/12/30 11:51:44;;;;;;;1.58;1.48;;;;;;;;;;6277111;22;20003;-71
2021/12/30 11:54:29;;;;;;;4.82;1.90;;;;;;;;;;6279059;22;20025;-71
2021/12/30 11:57:28;;;;;;;3.08;1.63;;;;;;;;;;6278281;22;20078;-67
2021/12/30 11:59:55;;;;;;;1.60;1.40;;;;;;;;;;6236772;22;20011;-69
2021/12/30 12:02:27;;;;;;;1.67;1.40;;;;;;;;;;6283593;22;20366;-71
2021/12/30 12:04:53;;;;;;;2.13;1.92;;;;;;;;;;6278601;22;20335;-70
2021/12/30 12:07:19;;;;;;;2.00;1.83;;;;;;;;;;6280267;22;20037;-67
2021/12/30 12:09:45;;;;;;;2.47;1.60;;;;;;;;;;6280256;22;20014;-64
2021/12/30 12:12:13;;;;;;;1.65;1.55;;;;;;;;;;6282328;22;20000;-67
2021/12/30 12:14:49;;;;;;;1.80;1.60;;;;;;;;;;6280009;22;20006;-72
2021/12/30 12:17:30;;;;;;;2.85;1.67;;;;;;;;;;6279870;22;19991;-71
2021/12/30 12:19:56;;;;;;;2.15;1.50;;;;;;;;;;6282721;22;20026;-66
2021/12/30 12:22:24;;;;;;;2.13;1.60;;;;;;;;;;6277861;22;20095;-66
2021/12/30 12:25:05;;;;;;;3.88;1.70;;;;;;;;;;6280426;22;19996;-69
2021/12/30 12:27:32;;;;;;;1.80;1.70;;;;;;;;;;6282265;22;20034;-71
2021/12/30 12:30:00;;;;;;;2.95;1.60;;;;;;;;;;6279707;22;20122;-69
2021/12/30 12:32:35;;;;;;;2.30;1.77;;;;;;;;;;6275092;22;20006;-70
2021/12/30 12:35:03;;;;;;;2.33;1.60;;;;;;;;;;6277067;22;20038;-67
2021/12/30 12:37:32;;;;;;;2.05;1.88;;;;;;;;;;6277743;22;20664;-71
2021/12/30 12:40:02;;;;;;;1.77;1.67;;;;;;;;;;6271147;22;20026;-67
2021/12/30 12:42:44;;;;;;;3.25;1.77;;;;;;;;;;6267128;22;20004;-64
2021/12/30 12:45:17;;;;;;;2.53;1.80;;;;;;;;;;6272315;22;20027;-67
2021/12/30 12:47:43;;;;;;;2.30;1.70;;;;;;;;;;6276237;22;20012;-70
2021/12/30 12:50:09;;;;;;;2.25;1.80;;;;;;;;;;6272234;22;20448;-68
2021/12/30 12:52:46;;;;;;;2.10;1.70;;;;;;;;;;6273280;22;20012;-71
2021/12/30 12:55:19;;;;;;;6.43;2.33;;;;;;;;;;6271175;22;20008;-70
2021/12/30 12:57:45;;;;;;;3.35;1.70;;;;;;;;;;6272014;22;20027;-67
2021/12/30 13:00:12;;;;;;;2.83;1.90;;;;;;;;;;6271712;22;20580;-69
2021/12/30 13:02:38;;;;;;;3.10;1.85;;;;;;;;;;6269457;22;20011;-69
2021/12/30 13:05:12;;;;;;;6.32;1.88;;;;;;;;;;6269872;22;20007;-68
2021/12/30 13:07:39;;;;;;;3.30;2.53;;;;;;;;;;6269545;22;20054;-66
2021/12/30 13:10:06;;;;;;;2.63;1.80;;;;;;;;;;6269349;22;20004;-69
2021/12/30 13:12:36;;;;;;;1.92;1.73;;;;;;;;;;6269813;22;20004;-65
2021/12/30 13:15:09;;;;;;;3.08;1.75;;;;;;;;;;6272849;22;20014;-65
2021/12/30 13:17:35;;;;;;;2.10;1.90;;;;;;;;;;6274159;22;20011;-67
2021/12/30 13:20:03;;;;;;;2.33;2.13;;;;;;;;;;6270636;22;20043;-67
2021/12/30 13:22:31;;;;;;;2.38;1.98;;;;;;;;;;6270797;22;20038;-69
2021/12/30 13:24:59;;;;;;;2.85;1.73;;;;;;;;;;6268806;22;20166;-68
2021/12/30 13:27:29;;;;;;;3.20;2.28;;;;;;;;;;6269872;22;20104;-65
2021/12/30 13:30:15;;;;;;;3.53;1.67;;;;;;;;;;6268028;22;20011;-67
2021/12/30 13:32:44;;;;;;;2.53;1.80;;;;;;;;;;6268998;22;20003;-68
2021/12/30 13:35:14;;;;;;;3.15;1.67;;;;;;;;;;6268617;22;20011;-68
2021/12/30 13:37:40;;;;;;;2.05;1.85;;;;;;;;;;6270255;22;20011;-68
2021/12/30 13:40:27;;;;;;;4.28;2.20;;;;;;;;;;6268382;22;20335;-71
2021/12/30 13:42:58;;;;;;;4.45;2.38;;;;;;;;;;6252161;22;20078;-68
2021/12/30 13:45:32;;;;;;;4.00;2.22;;;;;;;;;;6267590;22;20679;-67
2021/12/30 13:48:09;;;;;;;4.30;1.63;;;;;;;;;;6269045;22;20007;-68
2021/12/30 13:50:37;;;;;;;2.88;1.70;;;;;;;;;;6267222;22;20327;-67
2021/12/30 13:53:03;;;;;;;5.35;2.45;;;;;;;;;;6267327;22;20022;-68
2021/12/30 13:55:35;;;;;;;3.60;2.30;;;;;;;;;;6267338;22;20017;-68
2021/12/30 13:58:02;;;;;;;5.32;2.38;;;;;;;;;;6266812;22;20008;-70
2021/12/30 14:00:28;;;;;;;10.50;4.43;;;;;;;;;;6271066;22;20007;-64
2021/12/30 14:03:02;;;;;;;17.80;9.68;;;;;;;;;;6268293;22;20385;-66
2021/12/30 14:05:28;;;;;;;35.95;15.13;;;;;;;;;;6268112;22;20505;-65
2021/12/30 14:07:54;;;;;;;22.95;11.20;;;;;;;;;;6268483;22;20075;-65
2021/12/30 14:10:20;;;;;;;20.00;8.60;;;;;;;;;;6268182;22;20011;-65
2021/12/30 14:13:00;;;;;;;11.73;7.60;;;;;;;;;;6267981;22;20418;-68
2021/12/30 14:15:31;;;;;;;10.05;6.28;;;;;;;;;;6266104;22;20007;-69
2021/12/30 14:17:58;;;;;;;11.23;8.05;;;;;;;;;;6266554;22;20929;-69
2021/12/30 14:20:24;;;;;;;9.57;5.93;;;;;;;;;;6267460;22;20004;-67
2021/12/30 14:22:50;;;;;;;8.50;7.18;;;;;;;;;;6266498;22;20126;-67
2021/12/30 14:25:30;;;;;;;8.68;6.05;;;;;;;;;;6266074;22;20010;-70
2021/12/30 14:27:56;;;;;;;6.68;5.20;;;;;;;;;;6267022;22;20004;-68
2021/12/30 14:30:23;;;;;;;7.13;5.07;;;;;;;;;;6266491;22;20010;-68
2021/12/30 14:32:49;;;;;;;6.30;4.78;;;;;;;;;;6267841;22;20007;-69
2021/12/30 14:35:17;;;;;;;34.15;15.45;;;;;;;;;;6270115;22;20015;-71
2021/12/30 14:37:46;;;;;;;39.13;17.65;;;;;;;;;;6270535;22;20105;-67
2021/12/30 14:40:16;;;;;;;106.03;36.60;;;;;;;;;;6274669;22;20006;-67
2021/12/30 14:42:43;;;;;;;172.93;58.58;;;;;;;;;;6270209;22;20011;-69
2021/12/30 14:45:17;;;;;;;231.50;73.93;;;;;;;;;;6267484;22;20007;-70
2021/12/30 14:47:49;;;;;;;67.95;23.95;;;;;;;;;;6269774;22;20090;-68